TimeMST,TemperatureF,Dew PointF,Humidity,Sea Level PressureIn,VisibilityMPH,Wind Direction,Wind SpeedMPH,Gust SpeedMPH,PrecipitationIn,Events,Conditions,WindDirDegrees,DateUTC
12:15 AM,42.8,17.6,36,30.31,10.0,ENE,15.0,-,N/A,,Clear,60,2013-01-18 07:15:00
12:35 AM,42.8,17.6,36,30.31,10.0,ENE,13.8,-,N/A,,Clear,60,2013-01-18 07:35:00
12:55 AM,42.8,17.6,36,30.32,10.0,ENE,15.0,-,N/A,,Clear,60,2013-01-18 07:55:00
1:15 AM,42.8,17.6,36,30.32,10.0,ENE,13.8,18.4,N/A,,Clear,60,2013-01-18 08:15:00
1:55 AM,41.0,17.6,39,30.32,10.0,ENE,15.0,20.7,N/A,,Clear,60,2013-01-18 08:55:00
2:15 AM,41.0,17.6,39,30.32,10.0,ENE,13.8,-,N/A,,Clear,60,2013-01-18 09:15:00
2:35 AM,41.0,17.6,39,30.31,10.0,ENE,15.0,-,N/A,,Clear,60,2013-01-18 09:35:00
2:55 AM,41.0,17.6,39,30.31,10.0,ENE,16.1,-,N/A,,Clear,60,2013-01-18 09:55:00
3:15 AM,41.0,17.6,39,30.30,10.0,ENE,15.0,21.9,N/A,,Clear,60,2013-01-18 10:15:00
3:35 AM,41.0,17.6,39,30.30,10.0,NE,16.1,21.9,N/A,,Clear,50,2013-01-18 10:35:00
3:55 AM,39.2,17.6,42,30.30,10.0,NE,15.0,-,N/A,,Clear,50,2013-01-18 10:55:00
4:15 AM,39.2,17.6,42,30.29,10.0,ENE,16.1,23.0,N/A,,Clear,60,2013-01-18 11:15:00
4:35 AM,39.2,17.6,42,30.29,10.0,ENE,15.0,-,N/A,,Clear,60,2013-01-18 11:35:00
5:15 AM,37.4,17.6,45,30.28,10.0,ENE,15.0,-,N/A,,Clear,60,2013-01-18 12:15:00
5:35 AM,37.4,15.8,41,30.28,10.0,ENE,15.0,23.0,N/A,,Clear,60,2013-01-18 12:35:00
6:15 AM,37.4,15.8,41,30.29,10.0,ENE,19.6,25.3,N/A,,Clear,60,2013-01-18 13:15:00
6:35 AM,37.4,15.8,41,30.29,10.0,ENE,18.4,25.3,N/A,,Clear,60,2013-01-18 13:35:00
6:55 AM,37.4,15.8,41,30.30,10.0,ENE,18.4,26.5,N/A,,Clear,60,2013-01-18 13:55:00
7:15 AM,37.4,15.8,41,30.30,10.0,ENE,18.4,24.2,N/A,,Clear,60,2013-01-18 14:15:00
7:35 AM,37.4,15.8,41,30.31,10.0,ENE,18.4,24.2,N/A,,Clear,60,2013-01-18 14:35:00
7:55 AM,37.4,15.8,41,30.31,10.0,ENE,19.6,23.0,N/A,,Clear,60,2013-01-18 14:55:00
8:15 AM,39.2,15.8,39,30.31,10.0,ENE,16.1,23.0,N/A,,Clear,60,2013-01-18 15:15:00
8:55 AM,41.0,17.6,39,30.32,10.0,ENE,12.7,19.6,N/A,,Clear,70,2013-01-18 15:55:00
9:15 AM,42.8,17.6,36,30.33,10.0,East,13.8,18.4,N/A,,Clear,80,2013-01-18 16:15:00
9:35 AM,44.6,17.6,34,30.34,10.0,East,11.5,19.6,N/A,,Clear,80,2013-01-18 16:35:00
9:55 AM,46.4,17.6,32,30.34,10.0,ESE,6.9,-,N/A,,Clear,120,2013-01-18 16:55:00
10:15 AM,50.0,19.4,30,30.34,10.0,ESE,5.8,-,N/A,,Clear,120,2013-01-18 17:15:00
10:35 AM,50.0,19.4,30,30.34,10.0,SE,5.8,-,N/A,,Clear,130,2013-01-18 17:35:00
10:55 AM,51.8,19.4,28,30.33,10.0,SE,4.6,-,N/A,,Clear,130,2013-01-18 17:55:00
11:15 AM,51.8,19.4,28,30.33,10.0,Calm,Calm,-,N/A,,Clear,0,2013-01-18 18:15:00
11:35 AM,51.8,19.4,28,30.31,10.0,Calm,Calm,-,N/A,,Clear,0,2013-01-18 18:35:00
11:55 AM,53.6,19.4,26,30.30,10.0,SSW,5.8,-,N/A,,Clear,200,2013-01-18 18:55:00
12:15 PM,53.6,19.4,26,30.29,10.0,South,4.6,-,N/A,,Clear,190,2013-01-18 19:15:00
12:35 PM,55.4,19.4,25,30.27,10.0,SSW,5.8,-,N/A,,Clear,210,2013-01-18 19:35:00
12:55 PM,57.2,19.4,23,30.26,10.0,SW,3.5,-,N/A,,Clear,220,2013-01-18 19:55:00
1:15 PM,55.4,19.4,25,30.25,10.0,Calm,Calm,-,N/A,,Clear,0,2013-01-18 20:15:00
1:35 PM,57.2,21.2,25,30.24,10.0,SSW,4.6,-,N/A,,Clear,200,2013-01-18 20:35:00
1:55 PM,59.0,21.2,23,30.23,10.0,SSE,3.5,-,N/A,,Clear,160,2013-01-18 20:55:00
2:15 PM,59.0,21.2,23,30.23,10.0,Calm,Calm,-,N/A,,Clear,0,2013-01-18 21:15:00
2:35 PM,60.8,21.2,22,30.22,10.0,SW,4.6,-,N/A,,Clear,220,2013-01-18 21:35:00
2:55 PM,60.8,21.2,22,30.22,10.0,South,3.5,-,N/A,,Clear,180,2013-01-18 21:55:00
3:15 PM,60.8,21.2,22,30.22,10.0,South,4.6,-,N/A,,Clear,190,2013-01-18 22:15:00
3:35 PM,60.8,21.2,22,30.22,10.0,Calm,Calm,-,N/A,,Clear,0,2013-01-18 22:35:00
3:55 PM,60.8,21.2,22,30.21,10.0,Calm,Calm,-,N/A,,Clear,0,2013-01-18 22:55:00
4:15 PM,60.8,21.2,22,30.21,10.0,Calm,Calm,-,N/A,,Clear,0,2013-01-18 23:15:00
4:35 PM,59.0,21.2,23,30.21,10.0,Calm,Calm,-,N/A,,Clear,0,2013-01-18 23:35:00
4:55 PM,59.0,19.4,22,30.22,10.0,Calm,Calm,-,N/A,,Clear,0,2013-01-18 23:55:00
5:15 PM,57.2,19.4,23,30.22,10.0,West,3.5,-,N/A,,Clear,270,2013-01-19 00:15:00
5:35 PM,55.4,19.4,25,30.22,10.0,Calm,Calm,-,N/A,,Clear,0,2013-01-19 00:35:00
5:55 PM,53.6,21.2,28,30.23,10.0,ENE,6.9,-,N/A,,Clear,60,2013-01-19 00:55:00
6:15 PM,51.8,21.2,30,30.23,10.0,ENE,13.8,18.4,N/A,,Clear,60,2013-01-19 01:15:00
6:55 PM,50.0,21.2,32,30.23,10.0,NE,15.0,-,N/A,,Clear,50,2013-01-19 01:55:00
7:15 PM,50.0,21.2,32,30.24,10.0,NE,17.3,20.7,N/A,,Clear,50,2013-01-19 02:15:00
7:55 PM,46.4,21.2,37,30.24,10.0,NE,16.1,21.9,N/A,,Clear,50,2013-01-19 02:55:00
8:15 PM,46.4,19.4,34,30.25,10.0,NE,15.0,24.2,N/A,,Clear,50,2013-01-19 03:15:00
8:35 PM,46.4,19.4,34,30.25,10.0,NE,18.4,26.5,N/A,,Clear,50,2013-01-19 03:35:00
8:55 PM,44.6,19.4,37,30.25,10.0,NE,17.3,23.0,N/A,,Clear,50,2013-01-19 03:55:00
9:15 PM,44.6,19.4,37,30.25,10.0,NE,16.1,-,N/A,,Clear,50,2013-01-19 04:15:00
9:35 PM,44.6,19.4,37,30.25,10.0,NE,19.6,26.5,N/A,,Clear,50,2013-01-19 04:35:00
9:55 PM,44.6,19.4,37,30.25,10.0,NE,20.7,27.6,N/A,,Clear,50,2013-01-19 04:55:00
10:15 PM,44.6,19.4,37,30.25,10.0,NE,19.6,27.6,N/A,,Clear,50,2013-01-19 05:15:00
10:35 PM,44.6,19.4,37,30.25,10.0,NE,18.4,24.2,N/A,,Clear,50,2013-01-19 05:35:00
10:55 PM,44.6,19.4,37,30.25,10.0,NE,17.3,24.2,N/A,,Clear,50,2013-01-19 05:55:00
11:15 PM,44.6,19.4,37,30.25,10.0,ENE,18.4,24.2,N/A,,Clear,60,2013-01-19 06:15:00
11:35 PM,44.6,19.4,37,30.26,10.0,ENE,17.3,23.0,N/A,,Clear,60,2013-01-19 06:35:00
11:55 PM,44.6,19.4,37,30.26,10.0,ENE,15.0,-,N/A,,Clear,60,2013-01-19 06:55:00